Time;durP1;ratioP1;P1;durP2;ratioP2;P2;SDS_P1;SDS_P2;PMS_P1;PMS_P2;Temp;Humidity;BMP_temperature;BMP_pressure;BME280_temperature;BME280_humidity;BME280_pressure;Samples;Min_cycle;Max_cycle;Signal;HPM_P1;HPM_P2
2022/02/03 00:00:44;;;;;;;19.85;4.57;;;1.40;99.90;;;;;;5077949;28;20020;-52
2022/02/03 00:03:17;;;;;;;11.63;4.18;;;1.50;99.90;;;;;;5076514;28;20058;-56
2022/02/03 00:05:47;;;;;;;11.77;4.25;;;1.40;99.90;;;;;;5078157;28;20407;-55
2022/02/03 00:16:45;;;;;;;12.88;4.20;;;1.40;99.90;;;;;;5082856;28;20487;-53
2022/02/03 00:30:34;;;;;;;11.50;3.33;;;1.60;99.90;;;;;;5082121;28;20112;-54
2022/02/03 00:36:11;;;;;;;17.13;4.40;;;1.70;99.90;;;;;;5082015;28;20155;-53
2022/02/03 00:48:20;;;;;;;14.52;3.33;;;1.70;99.90;;;;;;5062730;28;20039;-55
2022/02/03 00:49:56;;;;;;;16.38;4.50;;;2.00;99.90;;;;;;5082896;28;20027;-52
2022/02/03 00:52:23;;;;;;;18.25;4.35;;;2.10;99.90;;;;;;5081212;28;20028;-55
2022/02/03 00:54:49;;;;;;;21.95;4.88;;;2.20;99.90;;;;;;5082560;28;20509;-55
2022/02/03 00:57:30;;;;;;;14.43;4.25;;;2.20;99.90;;;;;;5081295;28;20058;-53
2022/02/03 01:00:07;;;;;;;13.98;4.40;;;2.20;99.90;;;;;;5082590;28;20029;-55
2022/02/03 01:02:41;;;;;;;11.10;3.80;;;2.30;99.90;;;;;;5082476;28;20032;-56
2022/02/03 01:05:08;;;;;;;15.13;4.95;;;2.30;99.90;;;;;;5081655;28;20598;-52
2022/02/03 01:07:37;;;;;;;13.85;4.55;;;2.30;99.90;;;;;;5081185;28;20021;-51
2022/02/03 01:10:11;;;;;;;11.45;4.03;;;2.30;99.90;;;;;;5080691;28;20031;-54
2022/02/03 01:15:22;;;;;;;19.23;4.57;;;2.30;99.90;;;;;;5081149;28;20715;-54
2022/02/03 01:20:53;;;;;;;15.18;4.40;;;2.30;99.90;;;;;;5076943;28;20058;-55
2022/02/03 01:53:22;;;;;;;13.10;4.18;;;2.30;99.90;;;;;;5081388;28;20201;-55
2022/02/03 01:56:02;;;;;;;12.45;4.80;;;2.30;99.90;;;;;;5079821;28;20578;-53
2022/02/03 01:58:46;;;;;;;16.58;4.05;;;2.30;99.90;;;;;;5060109;28;20028;-52
2022/02/03 02:01:33;;;;;;;13.02;3.10;;;2.20;99.90;;;;;;5076807;28;20039;-54
2022/02/03 02:04:15;;;;;;;11.57;3.67;;;2.30;99.90;;;;;;5078250;28;20031;-54
2022/02/03 02:07:10;;;;;;;6.88;3.15;;;2.30;99.90;;;;;;5080806;28;20028;-55
2022/02/03 02:13:06;;;;;;;12.82;3.63;;;2.30;99.90;;;;;;5067989;28;20564;-56
2022/02/03 02:16:07;;;;;;;9.25;3.40;;;2.30;99.90;;;;;;5081038;28;20023;-56
2022/02/03 02:19:07;;;;;;;11.35;3.35;;;2.30;99.90;;;;;;5078671;28;20036;-56
2022/02/03 02:44:11;;;;;;;11.55;3.55;;;2.40;99.90;;;;;;5079809;28;20089;-55
2022/02/03 02:46:54;;;;;;;12.52;4.15;;;2.40;99.90;;;;;;5078490;28;20031;-54
2022/02/03 02:49:29;;;;;;;12.23;3.60;;;2.40;99.90;;;;;;5080017;28;20036;-53
2022/02/03 02:52:06;;;;;;;15.82;3.60;;;2.40;99.90;;;;;;5078933;28;20503;-55
2022/02/03 03:00:52;;;;;;;14.80;4.00;;;2.50;99.90;;;;;;5080117;28;20062;-56
2022/02/03 03:04:05;;;;;;;14.00;3.55;;;2.50;99.90;;;;;;5078654;28;20117;-56
2022/02/03 03:32:03;;;;;;;19.10;4.57;;;2.90;99.90;;;;;;5078840;28;20044;-53
2022/02/03 03:37:04;;;;;;;12.38;3.83;;;3.00;99.90;;;;;;5077995;28;20112;-55
2022/02/03 03:39:38;;;;;;;10.55;3.45;;;2.90;99.90;;;;;;5060699;28;20024;-52
2022/02/03 03:42:06;;;;;;;13.65;4.50;;;3.00;99.90;;;;;;5077307;28;20134;-56
2022/02/03 03:44:34;;;;;;;12.68;4.28;;;3.00;99.90;;;;;;5078233;28;20017;-56
2022/02/03 03:47:05;;;;;;;13.77;4.10;;;3.00;99.90;;;;;;5079213;28;20090;-54
2022/02/03 03:49:43;;;;;;;15.32;4.45;;;3.10;99.90;;;;;;5078890;28;20099;-50
2022/02/03 03:52:15;;;;;;;14.65;4.22;;;3.10;99.90;;;;;;5077651;28;20017;-53
2022/02/03 03:54:55;;;;;;;16.83;4.38;;;3.10;99.90;;;;;;5078829;28;20036;-52
2022/02/03 04:32:43;;;;;;;11.18;4.40;;;3.50;99.90;;;;;;5077591;28;20016;-55
2022/02/03 04:55:37;;;;;;;20.08;6.88;;;3.60;99.90;;;;;;5078690;28;20085;-53
2022/02/03 05:02:14;;;;;;;16.05;6.05;;;3.60;99.90;;;;;;5081379;28;20041;-55
2022/02/03 05:05:22;;;;;;;16.30;7.35;;;3.60;99.90;;;;;;5079720;28;20408;-52
2022/02/03 05:14:51;;;;;;;16.50;7.53;;;3.70;99.90;;;;;;5080612;28;20105;-52
2022/02/03 05:21:15;;;;;;;18.83;7.60;;;3.70;99.90;;;;;;5079888;28;20593;-52
2022/02/03 05:45:09;;;;;;;16.80;8.63;;;3.80;99.90;;;;;;5080603;28;20032;-54
2022/02/03 06:15:01;;;;;;;16.85;9.18;;;4.00;99.90;;;;;;5079964;28;20050;-56
2022/02/03 06:17:36;;;;;;;14.68;8.70;;;4.00;99.90;;;;;;5079664;28;20024;-54
2022/02/03 06:22:53;;;;;;;11.98;8.82;;;4.00;99.90;;;;;;5076895;28;20040;-55
2022/02/03 06:27:47;;;;;;;13.07;9.13;;;4.00;99.90;;;;;;5079657;28;20040;-54
2022/02/03 06:30:21;;;;;;;15.27;9.65;;;4.10;99.90;;;;;;5080378;28;20035;-54
2022/02/03 06:32:47;;;;;;;13.88;9.10;;;4.10;99.90;;;;;;5079061;28;20025;-56
2022/02/03 06:35:14;;;;;;;14.60;9.77;;;4.10;99.90;;;;;;5080295;28;20032;-56
2022/02/03 06:37:40;;;;;;;18.17;9.98;;;4.10;99.90;;;;;;5080034;28;20093;-54
2022/02/03 06:40:09;;;;;;;13.50;8.68;;;4.10;99.90;;;;;;5080752;28;20115;-56
2022/02/03 06:42:36;;;;;;;12.25;8.32;;;4.20;99.90;;;;;;5079287;28;20099;-54
2022/02/03 06:47:46;;;;;;;10.90;8.48;;;4.20;99.90;;;;;;5079890;28;20035;-54
2022/02/03 06:50:23;;;;;;;11.70;7.65;;;4.30;99.90;;;;;;5080654;28;20024;-56
2022/02/03 06:55:20;;;;;;;13.63;9.43;;;4.30;99.90;;;;;;5081492;28;20531;-55
2022/02/03 06:58:08;;;;;;;15.13;9.60;;;4.40;99.90;;;;;;5078157;28;20030;-55
2022/02/03 07:00:40;;;;;;;14.20;9.07;;;4.40;99.90;;;;;;5079223;28;20500;-55
2022/02/03 07:03:13;;;;;;;13.15;9.48;;;4.40;99.90;;;;;;5078484;28;20082;-54
2022/02/03 07:05:39;;;;;;;16.25;8.68;;;4.40;99.90;;;;;;5062220;28;20115;-56
2022/02/03 07:08:14;;;;;;;12.82;9.50;;;4.40;99.90;;;;;;5079456;28;20111;-56
2022/02/03 07:10:40;;;;;;;13.20;9.23;;;4.50;99.90;;;;;;5079566;28;20024;-55
2022/02/03 07:13:07;;;;;;;19.90;10.32;;;4.50;99.90;;;;;;5060111;28;20024;-55
2022/02/03 07:15:33;;;;;;;21.73;10.43;;;4.60;99.90;;;;;;5079445;28;20039;-54
2022/02/03 07:17:59;;;;;;;14.55;10.13;;;4.60;99.90;;;;;;5079627;28;20019;-54
2022/02/03 07:20:26;;;;;;;15.35;8.93;;;4.60;99.90;;;;;;5079294;28;20024;-54
2022/02/03 07:22:51;;;;;;;16.23;9.88;;;4.60;99.90;;;;;;5078442;28;20030;-55
2022/02/03 07:25:17;;;;;;;18.23;9.52;;;4.60;99.90;;;;;;5079214;28;20119;-55
2022/02/03 07:27:43;;;;;;;16.80;10.45;;;4.70;99.90;;;;;;5079845;28;20025;-56
2022/02/03 07:30:10;;;;;;;14.88;10.18;;;4.70;99.90;;;;;;5080210;28;20099;-51
2022/02/03 07:32:36;;;;;;;14.93;9.48;;;4.70;99.90;;;;;;5079513;28;20428;-58
2022/02/03 07:35:02;;;;;;;15.98;9.35;;;4.80;99.90;;;;;;5079063;28;20028;-54
2022/02/03 07:37:28;;;;;;;15.63;9.55;;;4.80;99.90;;;;;;5079082;28;20571;-58
2022/02/03 07:39:54;;;;;;;18.02;10.65;;;4.90;99.90;;;;;;5079259;28;20804;-54
2022/02/03 07:42:20;;;;;;;13.95;9.32;;;4.90;99.90;;;;;;5059833;28;20024;-54
2022/02/03 07:44:46;;;;;;;15.15;10.05;;;5.00;99.90;;;;;;5079796;28;20648;-57
2022/02/03 07:47:11;;;;;;;16.15;9.98;;;5.00;99.90;;;;;;5077100;28;20040;-58
2022/02/03 07:49:37;;;;;;;15.65;9.60;;;5.00;99.90;;;;;;5075092;28;20407;-58
2022/02/03 07:52:04;;;;;;;14.20;9.73;;;5.00;99.90;;;;;;5072755;28;20065;-57
2022/02/03 07:54:31;;;;;;;16.98;10.38;;;5.00;99.90;;;;;;5099161;22;20519;-51
2022/02/03 07:57:00;;;;;;;18.10;10.80;;;5.10;99.90;;;;;;5062666;28;20020;-54
2022/02/03 07:59:26;;;;;;;15.65;10.60;;;5.10;99.90;;;;;;5076757;28;20099;-54
2022/02/03 08:01:52;;;;;;;18.10;10.85;;;5.10;99.90;;;;;;5079559;28;20115;-52
2022/02/03 08:04:21;;;;;;;14.60;10.18;;;5.20;99.90;;;;;;5061094;28;20499;-56
2022/02/03 08:06:47;;;;;;;16.85;10.63;;;5.20;99.90;;;;;;5061767;28;20037;-50
2022/02/03 08:11:47;;;;;;;17.13;10.25;;;5.20;99.90;;;;;;5079316;28;20063;-52
2022/02/03 08:14:18;;;;;;;18.65;11.07;;;5.20;99.90;;;;;;5060290;28;20032;-55
2022/02/03 08:16:53;;;;;;;16.60;10.73;;;5.30;99.90;;;;;;5079194;28;20116;-56
2022/02/03 08:19:30;;;;;;;21.70;11.20;;;5.30;99.90;;;;;;5060131;28;20024;-54
2022/02/03 08:22:06;;;;;;;17.05;10.73;;;5.30;99.90;;;;;;5079511;28;20032;-53
2022/02/03 08:24:46;;;;;;;24.48;12.05;;;5.40;99.90;;;;;;5079108;28;20035;-54
2022/02/03 08:32:32;;;;;;;18.95;12.18;;;5.60;99.90;;;;;;5078616;28;20038;-52
2022/02/03 08:35:18;;;;;;;23.65;13.55;;;5.60;99.90;;;;;;5081712;28;20040;-55
2022/02/03 08:38:00;;;;;;;22.42;12.38;;;5.70;99.90;;;;;;5084313;28;20023;-52
2022/02/03 08:40:32;;;;;;;22.30;11.52;;;5.70;99.90;;;;;;5083109;28;20028;-53
2022/02/03 08:42:58;;;;;;;22.73;12.00;;;5.70;99.90;;;;;;5083270;28;20028;-55
2022/02/03 08:45:24;;;;;;;20.40;11.60;;;5.70;99.90;;;;;;5082235;28;20023;-55
2022/02/03 08:47:49;;;;;;;24.88;12.65;;;5.80;99.90;;;;;;5082710;28;20074;-54
2022/02/03 08:50:15;;;;;;;20.10;11.63;;;5.80;99.90;;;;;;5083173;28;20024;-55
2022/02/03 08:55:25;;;;;;;23.40;13.52;;;5.80;99.90;;;;;;5083320;28;20070;-55
2022/02/03 09:00:44;;;;;;;18.83;12.25;;;5.90;99.90;;;;;;5082930;28;20081;-54
2022/02/03 10:02:18;;;;;;;23.35;15.07;;;6.70;99.90;;;;;;5082005;28;20383;-52
2022/02/03 10:04:48;;;;;;;28.20;15.38;;;6.70;99.90;;;;;;5081699;28;20023;-53
2022/02/03 10:07:24;;;;;;;27.58;15.35;;;6.70;99.90;;;;;;5063216;28;20046;-54
2022/02/03 10:09:52;;;;;;;27.27;14.45;;;6.80;99.90;;;;;;5081139;28;20075;-55
2022/02/03 10:12:27;;;;;;;29.02;15.73;;;6.80;99.90;;;;;;5080789;28;20108;-54
2022/02/03 10:14:55;;;;;;;24.90;15.17;;;6.80;99.90;;;;;;5079863;28;20029;-54
2022/02/03 10:17:31;;;;;;;31.17;18.05;;;6.80;99.90;;;;;;5083017;28;20037;-56
2022/02/03 10:20:07;;;;;;;31.88;18.40;;;6.90;99.90;;;;;;5080578;28;20118;-52
2022/02/03 10:22:42;;;;;;;38.40;18.30;;;6.90;99.90;;;;;;5080735;28;20512;-54
2022/02/03 10:25:11;;;;;;;34.35;17.90;;;7.00;99.90;;;;;;5080596;28;20064;-52
2022/02/03 10:27:43;;;;;;;36.28;18.92;;;7.00;99.90;;;;;;5063348;28;20031;-53
2022/02/03 10:30:28;;;;;;;31.60;19.55;;;7.10;99.90;;;;;;5084296;28;20427;-54
2022/02/03 10:32:54;;;;;;;37.08;20.85;;;7.10;99.90;;;;;;5083628;28;20020;-52
2022/02/03 10:35:35;;;;;;;38.58;22.77;;;7.10;99.90;;;;;;5064022;28;20032;-52
2022/02/03 10:49:18;;;;;;;42.00;22.50;;;7.30;99.90;;;;;;5082826;28;20035;-56
2022/02/03 11:00:38;;;;;;;40.63;23.58;;;7.30;99.90;;;;;;5082820;28;20070;-53
2022/02/03 11:03:15;;;;;;;42.22;21.92;;;7.30;99.90;;;;;;5084303;28;20038;-54
2022/02/03 11:08:16;;;;;;;41.42;23.65;;;7.40;99.90;;;;;;5082837;28;20031;-57
2022/02/03 11:10:50;;;;;;;41.22;22.08;;;7.40;99.90;;;;;;5083284;28;20223;-56
2022/02/03 11:13:18;;;;;;;42.22;22.73;;;7.40;99.90;;;;;;5083236;28;20016;-55
2022/02/03 11:15:43;;;;;;;38.80;22.60;;;7.40;99.90;;;;;;5083028;28;20380;-52
2022/02/03 11:18:12;;;;;;;35.92;22.27;;;7.40;99.90;;;;;;5083909;28;20029;-55
2022/02/03 11:20:40;;;;;;;40.05;21.63;;;7.50;99.90;;;;;;5064591;28;20089;-58
2022/02/03 11:26:43;;;;;;;42.13;21.95;;;7.50;99.90;;;;;;5081430;28;20032;-57
2022/02/03 11:28:52;;;;;;;39.60;22.90;;;7.50;99.90;;;;;;5068481;28;20054;-54
2022/02/03 11:34:37;;;;;;;37.22;20.08;;;7.50;99.90;;;;;;5079414;28;20081;-56
2022/02/03 11:37:42;;;;;;;34.53;20.38;;;7.50;99.90;;;;;;5079502;28;20073;-54
2022/02/03 11:56:43;;;;;;;32.35;17.65;;;7.60;99.90;;;;;;5079095;28;20042;-54
2022/02/03 12:08:18;;;;;;;27.15;17.00;;;7.50;99.90;;;;;;5080938;28;20519;-54
2022/02/03 12:16:15;;;;;;;25.60;16.10;;;7.50;99.90;;;;;;5081355;28;20411;-53
2022/02/03 12:21:55;;;;;;;23.70;13.35;;;7.50;99.90;;;;;;5083981;28;20394;-55
2022/02/03 12:27:04;;;;;;;24.60;14.20;;;7.50;99.90;;;;;;5082757;28;20063;-54
2022/02/03 12:29:42;;;;;;;24.83;16.02;;;7.40;99.90;;;;;;5064309;28;20016;-56
2022/02/03 12:40:24;;;;;;;34.13;22.75;;;7.30;99.90;;;;;;5082731;28;20054;-54
2022/02/03 12:43:02;;;;;;;29.15;15.95;;;7.40;99.90;;;;;;5082615;28;20495;-54
2022/02/03 12:45:28;;;;;;;46.38;29.73;;;7.40;99.90;;;;;;5082650;28;20032;-52
2022/02/03 12:47:59;;;;;;;39.75;24.75;;;7.40;99.90;;;;;;5081625;28;20372;-55
2022/02/03 12:50:31;;;;;;;57.58;37.72;;;7.30;99.90;;;;;;5083237;28;20123;-53
2022/02/03 12:52:59;;;;;;;29.17;20.15;;;7.40;99.90;;;;;;5082292;28;20025;-53
2022/02/03 12:55:33;;;;;;;26.40;16.38;;;7.30;99.90;;;;;;5081400;28;20039;-54
2022/02/03 12:58:07;;;;;;;27.65;19.45;;;7.40;99.90;;;;;;5081932;28;20032;-53
2022/02/03 13:00:46;;;;;;;26.75;19.40;;;7.30;99.90;;;;;;5081527;28;20361;-53
2022/02/03 13:03:14;;;;;;;26.30;17.67;;;7.30;99.90;;;;;;5082334;28;20025;-53
2022/02/03 13:05:43;;;;;;;34.72;23.88;;;7.30;99.90;;;;;;5081538;28;21033;-56
2022/02/03 13:08:10;;;;;;;29.17;17.55;;;7.30;99.90;;;;;;5081812;28;20017;-51
2022/02/03 13:10:37;;;;;;;27.77;20.13;;;7.30;99.90;;;;;;5080680;28;20024;-56
2022/02/03 13:13:51;;;;;;;28.15;16.40;;;7.30;99.90;;;;;;5081636;28;20530;-54
2022/02/03 13:16:10;;;;;;;25.58;14.93;;;7.30;99.90;;;;;;5081684;28;20119;-53
2022/02/03 13:18:43;;;;;;;23.58;14.05;;;7.30;99.90;;;;;;5081900;28;20035;-54
2022/02/03 13:21:52;;;;;;;23.40;15.45;;;7.30;99.90;;;;;;5082507;28;20047;-55
2022/02/03 13:26:44;;;;;;;25.75;15.95;;;7.30;99.90;;;;;;5081682;28;20027;-53
2022/02/03 13:29:16;;;;;;;25.75;15.43;;;7.30;99.90;;;;;;5082720;28;20027;-53
2022/02/03 13:32:05;;;;;;;25.20;15.68;;;7.20;99.90;;;;;;5064619;28;20024;-54
2022/02/03 13:34:44;;;;;;;23.30;14.38;;;7.30;99.90;;;;;;5081449;28;20538;-52
2022/02/03 13:37:17;;;;;;;22.85;14.88;;;7.30;99.90;;;;;;5063860;28;20016;-53
2022/02/03 13:39:47;;;;;;;20.65;14.35;;;7.30;99.90;;;;;;5064154;28;20027;-51
2022/02/03 13:42:14;;;;;;;21.38;14.07;;;7.30;99.90;;;;;;5064234;28;20533;-55
2022/02/03 13:44:40;;;;;;;21.08;13.55;;;7.20;99.90;;;;;;5062533;28;20478;-57
2022/02/03 13:47:23;;;;;;;19.67;13.65;;;7.20;99.90;;;;;;5081718;28;20043;-51
2022/02/03 13:50:03;;;;;;;22.95;15.40;;;7.20;99.90;;;;;;5065794;28;20026;-53
2022/02/03 13:52:33;;;;;;;20.50;14.38;;;7.20;99.90;;;;;;5082050;28;20024;-51
2022/02/03 14:17:47;;;;;;;26.65;16.90;;;7.10;99.90;;;;;;5079376;28;20032;-51
2022/02/03 14:28:27;;;;;;;26.75;14.82;;;7.10;99.90;;;;;;5080520;28;20539;-52
2022/02/03 14:30:53;;;;;;;39.70;23.33;;;7.10;99.90;;;;;;5080551;28;20012;-52
2022/02/03 14:33:27;;;;;;;24.23;15.20;;;7.10;99.90;;;;;;5061018;28;20028;-51
2022/02/03 14:35:53;;;;;;;22.85;14.25;;;7.10;99.90;;;;;;5060316;28;20020;-54
2022/02/03 14:38:25;;;;;;;18.45;13.43;;;7.10;99.90;;;;;;5082034;28;20020;-51
2022/02/03 14:41:01;;;;;;;27.27;16.13;;;7.10;99.90;;;;;;5080318;28;20036;-51
2022/02/03 14:43:27;;;;;;;20.48;12.68;;;7.10;99.90;;;;;;5080203;28;20016;-52
2022/02/03 14:45:53;;;;;;;20.27;13.68;;;7.10;99.90;;;;;;5080467;28;20029;-50
2022/02/03 14:48:19;;;;;;;19.05;12.35;;;7.10;99.90;;;;;;5081239;28;20043;-52
2022/02/03 14:50:45;;;;;;;21.35;13.02;;;7.10;99.90;;;;;;5080102;28;20055;-51
2022/02/03 14:53:17;;;;;;;19.02;12.57;;;7.10;99.90;;;;;;5060963;28;20020;-53
2022/02/03 14:58:29;;;;;;;19.00;12.25;;;7.10;99.90;;;;;;5079995;28;20085;-51
2022/02/03 15:00:57;;;;;;;19.80;12.15;;;7.10;99.90;;;;;;5060014;28;20024;-52
2022/02/03 15:03:24;;;;;;;28.00;18.10;;;7.10;99.90;;;;;;5077871;28;20028;-52
2022/02/03 15:05:50;;;;;;;20.77;13.95;;;7.10;99.90;;;;;;5079205;28;20008;-51
2022/02/03 15:08:34;;;;;;;15.25;11.77;;;7.10;99.90;;;;;;5079225;28;20066;-52
2022/02/03 15:11:10;;;;;;;20.25;13.43;;;7.10;99.90;;;;;;5078566;28;20032;-51
2022/02/03 15:16:02;;;;;;;25.67;16.13;;;7.00;99.90;;;;;;5078924;28;19995;-51
2022/02/03 15:18:28;;;;;;;24.27;16.67;;;7.00;99.90;;;;;;5080063;28;20499;-49
2022/02/03 15:20:54;;;;;;;27.02;16.23;;;7.00;99.90;;;;;;5077432;28;20027;-51
2022/02/03 15:23:20;;;;;;;22.67;15.65;;;7.00;99.90;;;;;;5080381;28;20024;-49
2022/02/03 15:25:46;;;;;;;19.52;13.25;;;7.00;99.90;;;;;;5059684;28;20035;-50
2022/02/03 15:28:11;;;;;;;21.70;13.00;;;7.00;99.90;;;;;;5078621;28;20056;-51
2022/02/03 15:30:37;;;;;;;20.25;14.63;;;6.90;99.90;;;;;;5059489;28;20039;-49
2022/02/03 15:33:04;;;;;;;21.40;14.98;;;6.90;99.90;;;;;;5079847;28;20012;-50
2022/02/03 15:35:34;;;;;;;27.75;17.25;;;6.90;99.90;;;;;;5078354;28;20028;-53
2022/02/03 15:38:01;;;;;;;21.63;15.43;;;6.90;99.90;;;;;;5079312;28;20395;-52
2022/02/03 15:40:29;;;;;;;22.20;14.23;;;6.90;99.90;;;;;;5060355;28;20499;-52
2022/02/03 15:43:09;;;;;;;19.27;12.63;;;6.90;99.90;;;;;;5079116;28;20062;-51
2022/02/03 15:45:45;;;;;;;18.48;13.43;;;6.90;99.90;;;;;;5060310;28;20123;-52
2022/02/03 15:51:15;;;;;;;19.85;13.45;;;6.90;99.90;;;;;;5078187;28;20034;-53
2022/02/03 15:56:47;;;;;;;19.20;12.45;;;6.80;99.90;;;;;;5078976;28;20046;-51
2022/02/03 16:17:47;;;;;;;23.50;12.25;;;6.80;99.90;;;;;;5079074;28;20040;-51
2022/02/03 16:20:26;;;;;;;19.52;13.20;;;6.80;99.90;;;;;;5078554;28;20035;-52
2022/02/03 16:23:08;;;;;;;26.58;16.58;;;6.70;99.90;;;;;;5078336;28;20016;-51
2022/02/03 16:52:59;;;;;;;17.92;12.07;;;6.60;99.90;;;;;;5078908;28;20031;-53
2022/02/03 16:55:30;;;;;;;18.42;12.63;;;6.50;99.90;;;;;;5080977;28;20039;-51
2022/02/03 16:57:57;;;;;;;16.58;12.20;;;6.60;99.90;;;;;;5082196;28;20063;-54
2022/02/03 17:00:24;;;;;;;17.30;11.77;;;6.50;99.90;;;;;;5084368;28;20035;-51
2022/02/03 17:02:51;;;;;;;17.73;12.52;;;6.50;99.90;;;;;;5082337;28;20020;-52
2022/02/03 17:05:17;;;;;;;18.55;12.57;;;6.50;99.90;;;;;;5082066;28;20062;-52
2022/02/03 17:07:43;;;;;;;17.92;12.48;;;6.50;99.90;;;;;;5081564;28;20027;-51
2022/02/03 17:10:09;;;;;;;19.67;12.70;;;6.50;99.90;;;;;;5082349;28;20012;-51
2022/02/03 17:12:35;;;;;;;17.58;13.02;;;6.50;99.90;;;;;;5082835;28;20103;-51
2022/02/03 17:15:01;;;;;;;20.13;13.80;;;6.50;99.90;;;;;;5082651;28;20047;-51
2022/02/03 17:17:26;;;;;;;20.23;13.63;;;6.50;99.90;;;;;;5083341;28;20019;-51
2022/02/03 17:19:52;;;;;;;19.73;13.85;;;6.50;99.90;;;;;;5082742;28;20070;-51
2022/02/03 17:22:24;;;;;;;20.65;14.73;;;6.40;99.90;;;;;;5081655;28;20024;-54
2022/02/03 17:25:14;;;;;;;20.92;14.45;;;6.40;99.90;;;;;;5081907;28;20482;-50
2022/02/03 17:27:46;;;;;;;20.38;13.57;;;6.40;99.90;;;;;;5062518;28;20024;-51
2022/02/03 17:30:21;;;;;;;21.55;14.98;;;6.40;99.90;;;;;;5082298;28;20020;-51
2022/02/03 18:27:39;;;;;;;23.45;15.63;;;6.30;99.90;;;;;;5081027;28;20031;-52
2022/02/03 18:51:18;;;;;;;22.23;15.13;;;6.30;99.90;;;;;;5080037;28;20069;-52
2022/02/03 18:53:59;;;;;;;23.95;16.25;;;6.30;99.90;;;;;;5079508;28;20019;-54
2022/02/03 18:56:39;;;;;;;18.42;14.02;;;6.30;99.90;;;;;;5081354;28;20032;-54
2022/02/03 18:59:33;;;;;;;24.35;16.02;;;6.30;99.90;;;;;;5081196;28;20017;-50
2022/02/03 19:15:38;;;;;;;26.08;16.85;;;6.30;99.90;;;;;;5080014;28;20026;-52
2022/02/03 19:21:36;;;;;;;22.85;15.20;;;6.30;99.90;;;;;;5079128;28;20081;-52
2022/02/03 20:00:37;;;;;;;26.83;18.65;;;6.30;99.90;;;;;;5106654;28;20118;-55
2022/02/03 20:05:00;;;;;;;24.92;16.63;;;6.20;99.90;;;;;;5072649;28;20664;-54
2022/02/03 20:12:17;;;;;;;26.42;18.63;;;6.20;99.90;;;;;;5107551;28;20250;-56
2022/02/03 20:14:43;;;;;;;26.60;19.27;;;6.20;99.90;;;;;;5108572;28;20031;-56
2022/02/03 20:17:08;;;;;;;26.15;18.38;;;6.20;99.90;;;;;;5107710;28;20043;-55
2022/02/03 20:19:35;;;;;;;27.92;18.25;;;6.20;99.90;;;;;;5109062;28;20073;-56
2022/02/03 20:22:01;;;;;;;26.90;18.17;;;6.20;99.90;;;;;;5107554;28;20027;-54
2022/02/03 20:24:26;;;;;;;26.63;18.90;;;6.20;99.90;;;;;;5108400;28;20625;-53
2022/02/03 20:26:52;;;;;;;27.15;18.42;;;6.20;99.90;;;;;;5108054;28;20028;-53
2022/02/03 20:29:18;;;;;;;27.20;17.60;;;6.20;99.90;;;;;;5092161;28;20038;-55
2022/02/03 20:31:44;;;;;;;25.58;18.42;;;6.20;99.90;;;;;;5111501;28;20028;-56
2022/02/03 20:34:10;;;;;;;25.95;18.88;;;6.10;99.90;;;;;;5112207;28;20103;-59
2022/02/03 20:36:36;;;;;;;26.20;18.08;;;6.20;99.90;;;;;;5092327;28;20038;-56
2022/02/03 20:39:03;;;;;;;25.38;18.65;;;6.10;99.90;;;;;;5112289;28;20020;-60
2022/02/03 20:41:29;;;;;;;24.33;18.38;;;6.20;99.90;;;;;;5110034;28;20035;-54
2022/02/03 20:43:55;;;;;;;28.67;18.67;;;6.20;99.90;;;;;;5111758;28;20022;-57
2022/02/03 20:46:22;;;;;;;26.02;17.67;;;6.20;99.90;;;;;;5090020;27;20106;-56
2022/02/03 20:48:49;;;;;;;26.08;18.05;;;6.20;99.90;;;;;;5109567;28;20096;-55
2022/02/03 20:51:20;;;;;;;27.38;18.77;;;6.10;99.90;;;;;;5112243;28;20022;-57
2022/02/03 20:53:47;;;;;;;28.95;19.00;;;6.10;99.90;;;;;;5110476;27;20016;-57
2022/02/03 20:56:16;;;;;;;26.58;18.20;;;6.20;99.90;;;;;;5111027;28;20076;-53
2022/02/03 20:58:42;;;;;;;27.75;19.23;;;6.20;99.90;;;;;;5111725;28;20077;-53
2022/02/03 21:03:45;;;;;;;25.65;18.25;;;6.10;99.90;;;;;;5111480;28;20046;-58
2022/02/03 21:06:12;;;;;;;25.35;18.27;;;6.10;99.90;;;;;;5110769;28;20594;-57
2022/02/03 21:08:41;;;;;;;27.23;18.02;;;6.10;99.90;;;;;;5111709;28;20050;-54
2022/02/03 21:11:06;;;;;;;30.05;18.60;;;6.10;99.90;;;;;;5110368;27;20059;-54
2022/02/03 21:13:32;;;;;;;27.13;19.15;;;6.10;99.90;;;;;;5111626;28;20055;-59
2022/02/03 21:16:00;;;;;;;27.80;18.67;;;6.10;99.90;;;;;;5092726;28;20074;-54
2022/02/03 21:18:28;;;;;;;26.90;18.73;;;6.10;99.90;;;;;;5110675;28;20032;-54
2022/02/03 21:20:54;;;;;;;29.65;18.80;;;6.10;99.90;;;;;;5091184;28;20034;-57
2022/02/03 21:23:21;;;;;;;30.83;17.85;;;6.10;99.90;;;;;;5109313;28;20036;-55
2022/02/03 21:25:52;;;;;;;29.00;19.42;;;6.10;99.90;;;;;;5092775;28;20062;-56
2022/02/03 21:28:25;;;;;;;26.88;19.23;;;6.10;99.90;;;;;;5110660;28;20480;-56
2022/02/03 21:30:52;;;;;;;27.67;17.98;;;6.10;99.90;;;;;;5110941;28;20035;-55
2022/02/03 21:33:25;;;;;;;26.15;18.42;;;6.10;99.90;;;;;;5110586;28;20032;-53
2022/02/03 21:35:56;;;;;;;27.60;18.33;;;6.10;99.90;;;;;;5110327;28;20054;-57
2022/02/03 21:38:21;;;;;;;29.77;19.80;;;6.10;99.90;;;;;;5110259;28;20046;-57
2022/02/03 21:40:47;;;;;;;26.02;19.38;;;6.10;99.90;;;;;;5109154;28;20028;-54
2022/02/03 21:43:13;;;;;;;24.77;18.35;;;6.10;99.90;;;;;;5109571;28;20043;-54
2022/02/03 21:45:39;;;;;;;27.67;18.67;;;6.10;99.90;;;;;;5110319;28;20544;-53
2022/02/03 21:48:06;;;;;;;26.88;18.52;;;6.10;99.90;;;;;;5091949;28;20139;-53
2022/02/03 21:50:35;;;;;;;28.48;19.05;;;6.10;99.90;;;;;;5110848;28;20036;-56
2022/02/03 21:53:05;;;;;;;27.17;18.65;;;6.10;99.90;;;;;;5110336;28;20027;-53
2022/02/03 21:55:34;;;;;;;29.10;20.05;;;6.10;99.90;;;;;;5110827;28;20386;-57
2022/02/03 21:57:59;;;;;;;27.70;18.10;;;6.10;99.90;;;;;;5110227;28;20031;-52
2022/02/03 22:00:25;;;;;;;26.90;18.70;;;6.10;99.90;;;;;;5090243;28;20475;-55
2022/02/03 22:02:51;;;;;;;29.33;19.13;;;6.10;99.90;;;;;;5090189;28;20504;-55
2022/02/03 22:05:17;;;;;;;26.52;17.92;;;6.10;99.90;;;;;;5108872;28;20490;-57
2022/02/03 22:07:45;;;;;;;33.05;22.00;;;6.10;99.90;;;;;;5109829;28;20124;-54
2022/02/03 22:10:17;;;;;;;27.27;19.25;;;6.10;99.90;;;;;;5110048;28;20032;-52
2022/02/03 22:12:43;;;;;;;30.98;19.77;;;6.10;99.90;;;;;;5109553;28;20023;-54
2022/02/03 22:15:10;;;;;;;29.55;19.67;;;6.10;99.90;;;;;;5109732;28;20459;-57
2022/02/03 22:17:36;;;;;;;28.35;18.88;;;6.00;99.90;;;;;;5109856;28;20400;-55
2022/02/03 22:20:07;;;;;;;26.77;18.35;;;6.10;99.90;;;;;;5109434;28;20027;-55
2022/02/03 22:23:23;;;;;;;29.65;18.67;;;6.10;99.90;;;;;;5108468;28;20518;-55
2022/02/03 22:25:39;;;;;;;29.45;18.02;;;6.10;99.90;;;;;;5101899;28;20522;-53
2022/02/03 22:39:24;;;;;;;25.80;17.52;;;6.00;99.90;;;;;;5109733;28;20068;-58
2022/02/03 22:49:37;;;;;;;26.40;17.17;;;6.10;99.90;;;;;;5108667;28;20035;-59
2022/02/03 22:52:04;;;;;;;25.90;18.15;;;6.10;99.90;;;;;;5108503;28;20153;-59
2022/02/03 22:54:30;;;;;;;30.67;17.50;;;6.10;99.90;;;;;;5109625;28;20074;-58
2022/02/03 22:56:55;;;;;;;22.65;15.95;;;6.10;99.90;;;;;;5109501;28;20069;-58
2022/02/03 23:01:47;;;;;;;24.48;17.08;;;6.00;99.90;;;;;;5108159;28;20050;-58
2022/02/03 23:04:16;;;;;;;26.70;17.33;;;6.10;99.90;;;;;;5106853;28;20032;-58
2022/02/03 23:06:42;;;;;;;24.23;18.45;;;6.10;99.90;;;;;;5109107;28;20024;-53
2022/02/03 23:09:16;;;;;;;27.88;16.27;;;6.10;99.90;;;;;;5107759;28;20407;-57
2022/02/03 23:16:47;;;;;;;22.38;15.30;;;6.10;99.90;;;;;;5107775;28;20380;-56
2022/02/03 23:24:33;;;;;;;26.50;16.27;;;6.10;99.90;;;;;;5104163;28;20093;-57
2022/02/03 23:27:18;;;;;;;22.45;15.77;;;6.10;99.90;;;;;;5105804;28;20525;-54
2022/02/03 23:29:45;;;;;;;24.33;16.23;;;6.10;99.90;;;;;;5108239;28;20028;-57
2022/02/03 23:32:12;;;;;;;25.60;16.80;;;6.10;99.90;;;;;;5089703;28;20024;-53
2022/02/03 23:34:40;;;;;;;23.77;15.45;;;6.10;99.90;;;;;;5108577;28;20459;-54
2022/02/03 23:37:05;;;;;;;22.85;16.25;;;6.10;99.90;;;;;;5107899;28;20027;-56
2022/02/03 23:42:50;;;;;;;22.50;15.73;;;6.10;99.90;;;;;;5108557;28;20031;-56
2022/02/03 23:45:07;;;;;;;24.10;15.18;;;6.10;99.90;;;;;;5107253;28;20043;-57
2022/02/03 23:48:28;;;;;;;25.95;16.98;;;6.10;99.90;;;;;;5108066;28;20118;-54
